Thursday, April 24, 2014

  Over 45,111,151 pages visited!

GMT:
08:24
PACIFIC:
1:24:13 AM
MOUNTAIN:
2:24:13 AM

CENTRAL:
3:24:13 AM

EASTERN:
4:24:13 AM
ATLANTIC:
5:24:13 AM
NEWFOUNDLAND:
5:54:13 AM
 

 


Watches/Warnings
Current Conditions
Radar/Satellite
Lightning Images


Current Weather Conditions For TORONTO PEARSON,ON

 


Partly Cloudy
 

Temperature: 00C / 32F
Dew Point: -7C / 19F
Humidity: 59 %
Pressure: 1019.7 mbs (30.11 inches)
Visibility: 24.1 kms (15 SM)
Wind Direction: WNW (290)
Wind Speed: 11.1 Km/h (6.9 MPH)
Max Wind Gust: No Gusts
Humidex: N/A
WindChill: -4C
    

Observation Information

Date/Time: Thursday, April 24, 2014 @ 08:00Z
Local Time:
Metar Coded: CYYZ 240800Z 29006KT 15SM SKC 00/M07 A3010 RMK SLP197

 

 

                   1997-2014 The Ontario Weather Page